sensor_id;sensor_type;location;lat;lon;timestamp;P1;durP1;ratioP1;P2;durP2;ratioP2
76109;SDS011;64837;46.068;6.306;2022-11-15T17:27:59;6.88;;;3.28;;
76109;SDS011;64837;46.068;6.306;2022-11-15T17:30:25;7.35;;;3.20;;
76109;SDS011;64837;46.068;6.306;2022-11-15T17:32:50;7.63;;;3.20;;
76109;SDS011;64837;46.068;6.306;2022-11-15T17:35:16;9.07;;;3.60;;
76109;SDS011;64837;46.068;6.306;2022-11-15T17:37:42;5.85;;;2.50;;
76109;SDS011;64837;46.068;6.306;2022-11-15T17:40:07;6.75;;;2.90;;
76109;SDS011;64837;46.068;6.306;2022-11-15T17:42:33;8.13;;;3.20;;
76109;SDS011;64837;46.068;6.306;2022-11-15T17:44:58;6.35;;;3.08;;
76109;SDS011;64837;46.068;6.306;2022-11-15T17:47:23;8.10;;;3.33;;
76109;SDS011;64837;46.068;6.306;2022-11-15T17:49:49;10.03;;;3.80;;
76109;SDS011;64837;46.068;6.306;2022-11-15T17:52:14;7.70;;;3.78;;
76109;SDS011;64837;46.068;6.306;2022-11-15T17:54:40;8.75;;;3.72;;
76109;SDS011;64837;46.068;6.306;2022-11-15T17:57:06;7.73;;;3.73;;
76109;SDS011;64837;46.068;6.306;2022-11-15T17:59:31;8.85;;;3.72;;
76109;SDS011;64837;46.068;6.306;2022-11-15T18:01:57;9.25;;;4.18;;
76109;SDS011;64837;46.068;6.306;2022-11-15T18:04:22;8.60;;;3.92;;
76109;SDS011;64837;46.068;6.306;2022-11-15T18:06:52;10.32;;;4.32;;
76109;SDS011;64837;46.068;6.306;2022-11-15T18:09:17;9.40;;;4.55;;
76109;SDS011;64837;46.068;6.306;2022-11-15T18:11:43;10.40;;;5.18;;
76109;SDS011;64837;46.068;6.306;2022-11-15T18:14:14;11.75;;;4.63;;
76109;SDS011;64837;46.068;6.306;2022-11-15T18:16:39;12.50;;;5.07;;
76109;SDS011;64837;46.068;6.306;2022-11-15T18:19:06;16.83;;;6.40;;
76109;SDS011;64837;46.068;6.306;2022-11-15T18:21:38;14.75;;;6.63;;
76109;SDS011;64837;46.068;6.306;2022-11-15T18:24:20;12.80;;;6.25;;
76109;SDS011;64837;46.068;6.306;2022-11-15T18:26:46;21.30;;;7.15;;
76109;SDS011;64837;46.068;6.306;2022-11-15T18:29:11;16.23;;;6.53;;
76109;SDS011;64837;46.068;6.306;2022-11-15T18:31:36;18.58;;;6.75;;
76109;SDS011;64837;46.068;6.306;2022-11-15T18:34:02;16.90;;;6.50;;
76109;SDS011;64837;46.068;6.306;2022-11-15T18:36:29;15.32;;;6.88;;
76109;SDS011;64837;46.068;6.306;2022-11-15T18:38:55;15.20;;;6.32;;
76109;SDS011;64837;46.068;6.306;2022-11-15T18:41:20;16.02;;;6.60;;
76109;SDS011;64837;46.068;6.306;2022-11-15T18:43:49;15.40;;;5.93;;
76109;SDS011;64837;46.068;6.306;2022-11-15T18:46:15;14.40;;;6.88;;
76109;SDS011;64837;46.068;6.306;2022-11-15T18:48:41;15.85;;;6.93;;
76109;SDS011;64837;46.068;6.306;2022-11-15T18:51:08;15.70;;;6.80;;
76109;SDS011;64837;46.068;6.306;2022-11-15T18:53:34;13.45;;;6.68;;
76109;SDS011;64837;46.068;6.306;2022-11-15T18:56:00;16.52;;;7.38;;
76109;SDS011;64837;46.068;6.306;2022-11-15T18:58:27;13.88;;;6.22;;
76109;SDS011;64837;46.068;6.306;2022-11-15T19:00:58;10.88;;;6.05;;
76109;SDS011;64837;46.068;6.306;2022-11-15T19:03:23;15.80;;;6.88;;
76109;SDS011;64837;46.068;6.306;2022-11-15T19:05:48;14.63;;;6.97;;
76109;SDS011;64837;46.068;6.306;2022-11-15T19:08:14;14.10;;;7.00;;
76109;SDS011;64837;46.068;6.306;2022-11-15T19:10:39;15.80;;;7.37;;
76109;SDS011;64837;46.068;6.306;2022-11-15T19:13:04;14.47;;;7.20;;
76109;SDS011;64837;46.068;6.306;2022-11-15T19:15:29;15.23;;;6.23;;
76109;SDS011;64837;46.068;6.306;2022-11-15T19:17:55;14.87;;;6.77;;
76109;SDS011;64837;46.068;6.306;2022-11-15T19:20:20;13.85;;;5.80;;
76109;SDS011;64837;46.068;6.306;2022-11-15T19:22:45;13.82;;;5.95;;
76109;SDS011;64837;46.068;6.306;2022-11-15T19:25:10;12.80;;;5.77;;
76109;SDS011;64837;46.068;6.306;2022-11-15T19:27:36;11.57;;;5.47;;
76109;SDS011;64837;46.068;6.306;2022-11-15T19:30:02;12.35;;;5.97;;
76109;SDS011;64837;46.068;6.306;2022-11-15T19:32:27;16.10;;;7.03;;
76109;SDS011;64837;46.068;6.306;2022-11-15T19:34:53;19.92;;;11.82;;
76109;SDS011;64837;46.068;6.306;2022-11-15T19:37:18;22.55;;;15.15;;
76109;SDS011;64837;46.068;6.306;2022-11-15T19:39:44;26.95;;;16.63;;
76109;SDS011;64837;46.068;6.306;2022-11-15T19:42:09;26.48;;;15.93;;
76109;SDS011;64837;46.068;6.306;2022-11-15T19:44:34;26.58;;;14.70;;
76109;SDS011;64837;46.068;6.306;2022-11-15T19:47:00;24.33;;;13.55;;
76109;SDS011;64837;46.068;6.306;2022-11-15T19:49:25;21.90;;;12.63;;
76109;SDS011;64837;46.068;6.306;2022-11-15T19:51:50;23.83;;;12.90;;
76109;SDS011;64837;46.068;6.306;2022-11-15T19:54:16;19.52;;;11.32;;
76109;SDS011;64837;46.068;6.306;2022-11-15T19:56:42;19.52;;;10.88;;
76109;SDS011;64837;46.068;6.306;2022-11-15T19:59:07;22.38;;;11.52;;
76109;SDS011;64837;46.068;6.306;2022-11-15T20:01:35;21.63;;;10.98;;
76109;SDS011;64837;46.068;6.306;2022-11-15T20:04:02;18.38;;;11.15;;
76109;SDS011;64837;46.068;6.306;2022-11-15T20:06:29;21.55;;;10.90;;
76109;SDS011;64837;46.068;6.306;2022-11-15T20:08:54;19.08;;;11.20;;
76109;SDS011;64837;46.068;6.306;2022-11-15T20:11:20;21.63;;;11.05;;
76109;SDS011;64837;46.068;6.306;2022-11-15T20:13:45;18.65;;;10.27;;
76109;SDS011;64837;46.068;6.306;2022-11-15T20:16:13;18.70;;;10.10;;
76109;SDS011;64837;46.068;6.306;2022-11-15T20:18:39;18.67;;;10.45;;
76109;SDS011;64837;46.068;6.306;2022-11-15T20:21:04;20.70;;;9.97;;
76109;SDS011;64837;46.068;6.306;2022-11-15T20:23:30;17.17;;;9.90;;
76109;SDS011;64837;46.068;6.306;2022-11-15T20:25:55;21.42;;;10.52;;
76109;SDS011;64837;46.068;6.306;2022-11-15T20:28:25;18.77;;;10.60;;
76109;SDS011;64837;46.068;6.306;2022-11-15T20:30:53;20.35;;;10.68;;
76109;SDS011;64837;46.068;6.306;2022-11-15T20:33:18;18.48;;;9.60;;
76109;SDS011;64837;46.068;6.306;2022-11-15T20:35:44;17.75;;;10.10;;
76109;SDS011;64837;46.068;6.306;2022-11-15T20:38:10;19.13;;;10.07;;
76109;SDS011;64837;46.068;6.306;2022-11-15T20:40:36;16.95;;;9.48;;
76109;SDS011;64837;46.068;6.306;2022-11-15T20:43:02;17.98;;;9.38;;
76109;SDS011;64837;46.068;6.306;2022-11-15T20:45:27;17.38;;;9.40;;
76109;SDS011;64837;46.068;6.306;2022-11-15T20:47:58;17.70;;;9.32;;
76109;SDS011;64837;46.068;6.306;2022-11-15T20:50:24;17.63;;;8.75;;
76109;SDS011;64837;46.068;6.306;2022-11-15T20:52:50;18.10;;;9.32;;
76109;SDS011;64837;46.068;6.306;2022-11-15T20:55:15;18.42;;;9.68;;
76109;SDS011;64837;46.068;6.306;2022-11-15T20:57:41;19.17;;;9.20;;
76109;SDS011;64837;46.068;6.306;2022-11-15T21:00:06;18.42;;;8.57;;
76109;SDS011;64837;46.068;6.306;2022-11-15T21:02:31;17.23;;;8.68;;
76109;SDS011;64837;46.068;6.306;2022-11-15T21:04:57;17.45;;;8.73;;
76109;SDS011;64837;46.068;6.306;2022-11-15T21:07:22;18.98;;;9.15;;
76109;SDS011;64837;46.068;6.306;2022-11-15T21:09:47;17.73;;;9.20;;
76109;SDS011;64837;46.068;6.306;2022-11-15T21:12:31;16.25;;;8.45;;
76109;SDS011;64837;46.068;6.306;2022-11-15T21:14:58;18.98;;;8.55;;
76109;SDS011;64837;46.068;6.306;2022-11-15T21:17:26;16.55;;;8.18;;
76109;SDS011;64837;46.068;6.306;2022-11-15T21:19:51;18.15;;;8.23;;
76109;SDS011;64837;46.068;6.306;2022-11-15T21:22:17;18.48;;;8.40;;
